Time;durP1;ratioP1;P1;durP2;ratioP2;P2;SDS_P1;SDS_P2;PMS_P1;PMS_P2;Temp;Humidity;BMP_temperature;BMP_pressure;BME280_temperature;BME280_humidity;BME280_pressure;Samples;Min_cycle;Max_cycle;Signal;HPM_P1;HPM_P2
2022/05/12 00:01:41;;;;;;;15.10;4.90;;;;;;;18.23;39.72;98725.35;105788;1281;113546;-68
2022/05/12 00:04:12;;;;;;;10.90;4.20;;;;;;;18.18;40.04;98722.66;105802;1281;99334;-73
2022/05/12 00:06:43;;;;;;;8.40;4.30;;;;;;;18.16;40.01;98721.48;105385;1281;108356;-70
2022/05/12 00:09:14;;;;;;;16.60;4.90;;;;;;;18.14;39.95;98721.48;105733;1281;99260;-69
2022/05/12 00:11:44;;;;;;;15.10;4.80;;;;;;;18.12;40.13;98723.30;105599;1281;99249;-69
2022/05/12 00:14:17;;;;;;;10.00;4.00;;;;;;;18.06;40.00;98721.09;105714;1281;113382;-69
2022/05/12 00:16:47;;;;;;;14.40;4.60;;;;;;;17.98;40.29;98718.73;105526;1281;99308;-68
2022/05/12 00:19:15;;;;;;;8.80;4.60;;;;;;;17.91;40.11;98716.80;105635;1281;108368;-67
2022/05/12 00:21:43;;;;;;;9.90;4.20;;;;;;;17.84;40.27;98714.15;105645;1281;99226;-68
2022/05/12 00:24:16;;;;;;;11.20;4.40;;;;;;;17.79;40.24;98715.69;105725;1281;96654;-70
2022/05/12 00:26:46;;;;;;;12.00;4.50;;;;;;;17.76;40.53;98707.52;105749;1281;113528;-68
2022/05/12 00:29:15;;;;;;;9.30;4.40;;;;;;;17.73;40.37;98706.59;105738;1281;99952;-71
2022/05/12 00:31:47;;;;;;;10.30;4.30;;;;;;;17.71;40.36;98705.50;105692;1281;108343;-68
2022/05/12 00:34:19;;;;;;;7.70;4.50;;;;;;;17.68;40.57;98702.35;105774;1281;100716;-67
2022/05/12 00:36:51;;;;;;;11.40;5.10;;;;;;;17.67;40.83;98705.13;105660;1282;99198;-68
2022/05/12 00:39:19;;;;;;;12.50;4.40;;;;;;;17.66;40.64;98696.83;105688;1281;113066;-68
2022/05/12 00:41:53;;;;;;;14.60;4.70;;;;;;;17.66;40.61;98701.94;105793;1283;99271;-68
2022/05/12 00:44:25;;;;;;;14.00;4.50;;;;;;;17.64;40.78;98696.52;105507;1283;108420;-67
2022/05/12 00:46:53;;;;;;;10.00;4.50;;;;;;;17.63;40.92;98698.48;105740;1281;99256;-67
2022/05/12 00:49:49;;;;;;;10.60;4.90;;;;;;;17.61;40.96;98694.06;105831;1281;96743;-68
2022/05/12 00:52:26;;;;;;;11.10;4.90;;;;;;;17.57;41.01;98700.54;105829;1283;112461;-72
2022/05/12 00:55:04;;;;;;;11.90;4.60;;;;;;;17.55;40.94;98699.46;105820;1283;99275;-70
2022/05/12 00:57:40;;;;;;;12.20;4.70;;;;;;;17.53;41.26;98702.59;105787;1283;108627;-69
2022/05/12 01:00:15;;;;;;;10.10;4.80;;;;;;;17.50;41.02;98700.08;105610;1281;98019;-69
2022/05/12 01:02:47;;;;;;;10.20;4.70;;;;;;;17.44;41.27;98699.08;105645;1283;99302;-69
2022/05/12 01:05:18;;;;;;;6.40;3.20;;;;;;;17.39;41.09;98697.92;105606;1283;113441;-68
2022/05/12 01:07:48;;;;;;;12.40;4.50;;;;;;;17.36;41.36;98698.24;105723;1283;99327;-68
2022/05/12 01:10:20;;;;;;;10.00;4.30;;;;;;;17.32;41.39;98695.30;105753;1283;108221;-68
2022/05/12 01:12:55;;;;;;;10.00;4.40;;;;;;;17.31;41.30;98697.00;105813;1281;99379;-68
2022/05/12 01:15:27;;;;;;;;;;;;;;;17.29;41.47;98695.42;105817;1283;99199;-68
2022/05/12 01:18:17;;;;;;;10.60;4.10;;;;;;;17.27;41.72;98695.15;105841;1281;112887;-67
2022/05/12 01:20:51;;;;;;;10.50;4.40;;;;;;;17.25;41.76;98693.67;105421;1283;99304;-70
2022/05/12 01:23:36;;;;;;;12.10;4.60;;;;;;;17.25;41.72;98691.04;105827;1283;107494;-68
2022/05/12 01:26:10;;;;;;;12.90;4.80;;;;;;;17.24;41.69;98693.06;105767;1283;99214;-68
2022/05/12 01:28:43;;;;;;;9.00;4.10;;;;;;;17.21;41.66;98689.83;105729;1283;96634;-68
2022/05/12 01:31:20;;;;;;;11.80;4.50;;;;;;;17.18;41.89;98695.52;105612;1283;113410;-68
2022/05/12 01:33:54;;;;;;;7.20;4.00;;;;;;;17.15;41.86;98697.12;105658;1283;97093;-68
2022/05/12 01:36:27;;;;;;;10.10;4.60;;;;;;;17.11;41.99;98693.73;105788;1283;108406;-69
2022/05/12 01:38:57;;;;;;;10.60;3.90;;;;;;;17.08;41.92;98689.70;105761;1283;96650;-68
2022/05/12 01:41:27;;;;;;;14.20;4.50;;;;;;;17.07;42.14;98688.57;105780;1283;99234;-66
2022/05/12 01:44:00;;;;;;;14.80;4.70;;;;;;;17.07;41.99;98685.41;105789;1281;113401;-70
2022/05/12 01:46:38;;;;;;;9.90;4.20;;;;;;;17.05;42.30;98682.70;105778;1283;96680;-67
2022/05/12 01:49:06;;;;;;;17.50;5.10;;;;;;;17.04;42.31;98686.38;105827;1283;108414;-68
2022/05/12 01:51:39;;;;;;;10.20;4.30;;;;;;;17.03;42.42;98682.21;105597;1283;99213;-68
2022/05/12 01:54:07;;;;;;;12.20;4.30;;;;;;;17.04;42.50;98682.08;105427;1283;100360;-67
2022/05/12 01:56:36;;;;;;;15.00;4.70;;;;;;;17.04;42.43;98677.88;105581;1283;113450;-69
2022/05/12 01:59:06;;;;;;;12.80;4.50;;;;;;;17.03;42.37;98682.98;105614;1283;99130;-70
2022/05/12 02:01:34;;;;;;;13.80;4.60;;;;;;;17.00;42.48;98676.05;105473;1284;108403;-67
2022/05/12 02:04:07;;;;;;;12.40;4.50;;;;;;;16.99;42.61;98673.39;105638;1283;99234;-68
2022/05/12 02:06:39;;;;;;;10.30;4.20;;;;;;;16.98;42.58;98676.17;105642;1283;96555;-67
2022/05/12 02:09:12;;;;;;;7.80;4.30;;;;;;;16.95;42.68;98672.42;105623;1283;112520;-70
2022/05/12 02:11:40;;;;;;;9.30;4.00;;;;;;;16.95;42.78;98668.39;105546;1284;97954;-69
2022/05/12 02:14:14;;;;;;;10.10;4.10;;;;;;;16.94;42.64;98668.11;105527;1283;108328;-69
2022/05/12 02:16:45;;;;;;;;;;;;;;;16.93;42.68;98667.48;105474;1283;100023;-68
2022/05/12 02:19:13;;;;;;;11.10;4.40;;;;;;;16.89;42.88;98666.63;105615;1283;99111;-69
2022/05/12 02:21:42;;;;;;;11.60;4.20;;;;;;;16.89;42.84;98665.77;105620;1283;113308;-67
2022/05/12 02:24:16;;;;;;;10.50;4.80;;;;;;;16.89;42.98;98663.56;105624;1283;97706;-69
2022/05/12 02:26:44;;;;;;;14.60;4.40;;;;;;;16.89;43.14;98660.61;105578;1283;108080;-68
2022/05/12 02:29:14;;;;;;;10.70;4.60;;;;;;;16.88;42.93;98659.60;105542;1282;97747;-68
2022/05/12 02:31:42;;;;;;;9.70;3.80;;;;;;;16.87;43.07;98660.29;105584;1284;99235;-69
2022/05/12 02:34:14;;;;;;;10.30;4.70;;;;;;;16.85;43.05;98663.52;105550;1284;113208;-68
2022/05/12 02:37:00;;;;;;;13.20;4.70;;;;;;;16.83;43.11;98664.20;105527;1284;99347;-67
2022/05/12 02:39:40;;;;;;;10.60;3.90;;;;;;;16.82;43.26;98661.31;105643;1283;108362;-67
2022/05/12 02:42:11;;;;;;;13.80;4.40;;;;;;;16.80;43.26;98664.20;105547;1284;99388;-69
2022/05/12 02:44:40;;;;;;;10.60;4.40;;;;;;;16.78;43.26;98665.45;105550;1284;99356;-68
2022/05/12 02:47:13;;;;;;;11.90;4.70;;;;;;;16.76;43.25;98665.52;105784;1283;112814;-69
2022/05/12 02:49:41;;;;;;;11.90;4.60;;;;;;;16.74;43.49;98663.36;105550;1282;99343;-69
2022/05/12 02:52:10;;;;;;;10.40;4.60;;;;;;;16.74;43.38;98662.85;105512;1282;108141;-67
2022/05/12 02:54:40;;;;;;;11.70;5.00;;;;;;;16.72;43.45;98665.70;105505;1282;99332;-68
2022/05/12 02:57:08;;;;;;;11.10;4.50;;;;;;;16.72;43.57;98661.10;105552;1284;99329;-69
2022/05/12 02:59:37;;;;;;;11.40;4.30;;;;;;;16.72;43.40;98658.95;105531;1283;112969;-68
2022/05/12 03:02:10;;;;;;;11.00;4.00;;;;;;;16.70;43.61;98655.73;105571;1283;98358;-69
2022/05/12 03:04:47;;;;;;;10.70;4.20;;;;;;;16.68;43.72;98655.25;105561;1284;108452;-69
2022/05/12 03:07:17;;;;;;;11.00;4.50;;;;;;;16.66;43.61;98656.31;105552;1282;99301;-68
2022/05/12 03:09:48;;;;;;;11.00;4.90;;;;;;;16.64;43.75;98650.73;105610;1283;99263;-68
2022/05/12 03:12:16;;;;;;;8.80;4.80;;;;;;;16.61;43.81;98651.08;105575;1283;113394;-67
2022/05/12 03:14:44;;;;;;;12.70;4.40;;;;;;;16.60;43.79;98649.30;105581;1283;99238;-69
2022/05/12 03:17:14;;;;;;;10.70;4.30;;;;;;;16.60;43.73;98649.08;105438;1283;108401;-68
2022/05/12 03:19:47;;;;;;;14.60;5.20;;;;;;;16.60;43.80;98650.45;105473;1283;99245;-68
2022/05/12 03:22:18;;;;;;;14.50;4.70;;;;;;;16.62;43.89;98652.84;105396;1284;99224;-67
2022/05/12 03:24:48;;;;;;;12.60;4.40;;;;;;;16.62;43.91;98653.86;105433;1283;113335;-68
2022/05/12 03:27:20;;;;;;;10.20;4.30;;;;;;;16.63;43.84;98651.48;105515;1283;97760;-67
2022/05/12 03:29:48;;;;;;;12.90;4.40;;;;;;;16.64;44.04;98652.45;105424;1284;108434;-68
2022/05/12 03:32:16;;;;;;;10.40;4.40;;;;;;;16.65;44.13;98653.36;105425;1283;96645;-68
2022/05/12 03:34:47;;;;;;;10.90;4.40;;;;;;;16.67;44.12;98652.09;105549;1283;99335;-69
2022/05/12 03:37:21;;;;;;;13.20;4.70;;;;;;;16.69;44.25;98656.77;105326;1283;113684;-69
2022/05/12 03:39:49;;;;;;;11.20;4.40;;;;;;;16.71;44.31;98656.30;105618;1283;99106;-65
2022/05/12 03:42:18;;;;;;;10.10;4.10;;;;;;;16.74;44.31;98653.43;105577;1283;108427;-69
2022/05/12 03:44:46;;;;;;;10.60;4.60;;;;;;;16.74;44.33;98651.02;101926;1283;4900347;-68
2022/05/12 03:47:19;;;;;;;8.10;4.10;;;;;;;16.75;44.41;98652.55;105729;1281;111674;-69
2022/05/12 03:49:53;;;;;;;10.10;4.40;;;;;;;16.75;44.33;98650.17;105626;1281;97605;-67
2022/05/12 03:52:21;;;;;;;11.20;5.00;;;;;;;16.75;44.36;98649.47;105394;1283;107797;-69
2022/05/12 03:54:51;;;;;;;11.30;4.00;;;;;;;16.76;44.29;98651.33;105507;1283;99430;-69
2022/05/12 03:57:28;;;;;;;10.40;3.80;;;;;;;16.77;44.63;98647.25;105536;1283;99181;-70
2022/05/12 03:59:57;;;;;;;11.00;4.50;;;;;;;16.80;44.53;98649.49;105520;1283;112475;-67
2022/05/12 04:02:29;;;;;;;9.70;4.50;;;;;;;16.83;44.52;98657.63;105587;1283;99417;-69
2022/05/12 04:04:59;;;;;;;10.70;4.10;;;;;;;16.86;44.71;98654.41;105470;1283;107893;-69
2022/05/12 04:07:28;;;;;;;15.50;4.60;;;;;;;16.90;44.69;98652.27;105506;1283;99291;-69
2022/05/12 04:09:56;;;;;;;13.60;4.30;;;;;;;16.93;44.77;98651.67;105538;1283;96654;-66
2022/05/12 04:12:27;;;;;;;10.10;4.70;;;;;;;16.97;44.80;98654.17;105635;1283;112735;-68
2022/05/12 04:14:59;;;;;;;11.90;4.50;;;;;;;17.02;44.82;98651.91;105534;1282;99273;-69
2022/05/12 04:17:27;;;;;;;14.20;5.00;;;;;;;17.07;44.81;98650.08;105466;1282;107750;-70
2022/05/12 04:19:55;;;;;;;9.20;4.10;;;;;;;17.11;44.72;98648.38;105420;1283;99335;-69
2022/05/12 04:22:23;;;;;;;14.60;5.10;;;;;;;17.17;44.80;98651.52;105376;1283;99226;-70
2022/05/12 04:24:51;;;;;;;10.40;4.00;;;;;;;17.23;44.78;98649.88;105292;1282;112309;-70
2022/05/12 04:27:19;;;;;;;11.60;4.40;;;;;;;17.29;44.83;98646.94;105286;1282;99201;-70
2022/05/12 04:29:47;;;;;;;8.90;4.10;;;;;;;17.36;44.81;98641.27;105466;1283;107802;-70
2022/05/12 04:32:15;;;;;;;12.40;4.50;;;;;;;17.44;44.92;98644.23;105488;1282;97761;-68
2022/05/12 04:37:32;;;;;;;17.20;4.20;;;;;;;17.59;45.07;98649.75;105667;1283;113096;-69
2022/05/12 04:40:14;;;;;;;14.10;4.20;;;;;;;17.64;44.85;98645.22;105833;1283;99259;-68
2022/05/12 04:42:42;;;;;;;14.50;5.30;;;;;;;17.70;44.90;98646.95;105682;1283;107732;-70
2022/05/12 04:45:11;;;;;;;11.30;4.00;;;;;;;17.74;44.94;98645.79;105623;1283;96654;-69
2022/05/12 04:47:41;;;;;;;16.10;5.20;;;;;;;17.78;44.88;98647.66;105619;1282;99322;-69
2022/05/12 04:50:16;;;;;;;14.80;4.60;;;;;;;17.82;45.05;98647.05;105662;1283;112741;-66
2022/05/12 04:52:47;;;;;;;14.50;4.30;;;;;;;17.87;45.08;98646.77;105776;1283;97699;-70
2022/05/12 04:55:17;;;;;;;7.10;3.50;;;;;;;17.89;45.15;98645.77;105651;1283;107842;-69
2022/05/12 04:57:48;;;;;;;10.50;4.10;;;;;;;17.91;45.04;98646.97;105646;1283;99318;-70
2022/05/12 05:00:23;;;;;;;8.90;4.70;;;;;;;17.93;45.05;98647.83;105608;1282;99261;-70
2022/05/12 05:02:51;;;;;;;11.10;4.50;;;;;;;17.96;45.09;98647.48;105325;1283;112776;-69
2022/05/12 05:05:20;;;;;;;15.90;4.50;;;;;;;17.98;45.29;98646.71;105714;1283;99322;-69
2022/05/12 05:07:48;;;;;;;18.00;5.10;;;;;;;18.01;45.20;98653.14;105660;1283;107903;-69
2022/05/12 05:10:17;;;;;;;14.20;4.60;;;;;;;18.04;45.30;98650.14;105516;1282;99330;-69
2022/05/12 05:12:46;;;;;;;13.30;4.70;;;;;;;18.07;45.52;98650.14;105591;1282;100052;-70
2022/05/12 05:15:15;;;;;;;15.20;4.90;;;;;;;18.09;45.29;98647.89;105620;1283;113541;-70
2022/05/12 05:17:45;;;;;;;10.40;4.30;;;;;;;18.15;45.22;98646.23;105538;1283;96644;-70
2022/05/12 05:20:21;;;;;;;10.90;4.60;;;;;;;18.20;45.39;98643.16;105605;1283;107674;-71
2022/05/12 05:22:50;;;;;;;13.00;4.10;;;;;;;18.26;45.31;98647.14;105634;1283;99222;-71
2022/05/12 05:25:17;;;;;;;11.20;4.00;;;;;;;18.32;45.49;98643.27;105649;1283;99144;-72
2022/05/12 05:27:47;;;;;;;13.80;4.40;;;;;;;18.37;45.41;98638.90;105664;1283;112813;-72
2022/05/12 05:30:20;;;;;;;17.50;4.80;;;;;;;18.43;45.39;98641.41;105507;1283;99315;-72
2022/05/12 05:32:49;;;;;;;21.40;4.90;;;;;;;18.52;45.48;98644.83;105499;1283;107666;-71
2022/05/12 05:35:19;;;;;;;15.30;5.00;;;;;;;18.58;45.27;98642.98;105664;1283;99347;-70
2022/05/12 05:37:54;;;;;;;13.90;4.70;;;;;;;18.66;45.21;98649.16;105401;1284;99231;-71
2022/05/12 05:40:26;;;;;;;14.10;4.50;;;;;;;18.72;45.29;98644.98;105355;1283;112700;-72
2022/05/12 05:42:58;;;;;;;14.90;4.50;;;;;;;18.80;45.25;98645.00;105674;1283;99248;-68
2022/05/12 05:45:27;;;;;;;23.40;5.20;;;;;;;18.88;45.22;98644.27;105624;1282;107905;-69
2022/05/12 05:47:59;;;;;;;37.40;7.70;;;;;;;18.95;45.35;98644.39;105522;1283;99896;-71
2022/05/12 05:53:23;;;;;;;18.90;5.70;;;;;;;19.04;45.36;98644.02;105469;1283;97728;-70
2022/05/12 05:53:26;;;;;;;21.60;5.60;;;;;;;19.12;45.37;98648.05;105541;1283;111798;-69
2022/05/12 05:55:59;;;;;;;16.00;4.70;;;;;;;19.19;45.32;98648.14;105345;1283;99271;-70
2022/05/12 05:58:28;;;;;;;;;;;;;;;19.28;45.33;98650.27;105390;1284;107777;-69
2022/05/12 06:00:57;;;;;;;14.70;4.50;;;;;;;19.33;45.29;98654.70;105432;1284;99422;-71
2022/05/12 06:03:25;;;;;;;13.30;5.10;;;;;;;19.40;45.34;98649.90;105429;1283;99322;-69
2022/05/12 06:05:55;;;;;;;12.50;4.10;;;;;;;19.47;45.29;98649.25;105641;1283;112790;-69
2022/05/12 06:08:25;;;;;;;11.20;4.20;;;;;;;19.55;45.18;98648.58;105489;1283;99146;-68
2022/05/12 06:11:04;;;;;;;10.90;4.50;;;;;;;19.61;45.23;98644.71;105376;1283;108392;-69
2022/05/12 06:13:36;;;;;;;12.90;4.70;;;;;;;19.70;45.12;98643.04;105533;1283;99113;-69
2022/05/12 06:16:06;;;;;;;16.70;4.60;;;;;;;19.78;45.11;98644.24;105605;1283;99121;-69
2022/05/12 06:18:41;;;;;;;23.10;5.40;;;;;;;19.86;45.17;98645.66;105636;1283;113223;-70
2022/05/12 06:21:11;;;;;;;11.50;4.40;;;;;;;19.94;45.10;98643.48;105706;1282;96564;-70
2022/05/12 06:23:41;;;;;;;16.10;4.40;;;;;;;20.01;45.10;98636.75;105624;1283;107592;-69
2022/05/12 06:26:15;;;;;;;13.00;4.60;;;;;;;20.08;45.06;98634.83;105587;1283;97087;-71
2022/05/12 06:28:47;;;;;;;16.10;5.10;;;;;;;20.16;45.05;98634.63;105438;1284;99262;-67
2022/05/12 06:31:25;;;;;;;16.20;4.20;;;;;;;20.24;45.05;98633.33;104991;1286;112692;-67
2022/05/12 06:34:01;;;;;;;14.70;5.00;;;;;;;20.31;45.10;98630.27;105430;1284;99274;-70
2022/05/12 06:36:29;;;;;;;12.50;4.40;;;;;;;20.40;45.05;98631.89;105310;1283;107014;-69
2022/05/12 06:38:57;;;;;;;18.10;4.70;;;;;;;20.49;45.01;98631.05;105432;1284;100375;-69
2022/05/12 06:41:30;;;;;;;22.80;5.10;;;;;;;20.57;45.00;98630.56;105693;1283;99110;-71
2022/05/12 06:43:58;;;;;;;15.10;4.30;;;;;;;20.67;44.89;98626.11;105350;1283;113210;-70
2022/05/12 06:46:29;;;;;;;17.10;4.70;;;;;;;20.76;45.01;98622.58;105648;1283;97736;-71
2022/05/12 06:49:03;;;;;;;18.30;4.80;;;;;;;20.86;44.85;98626.04;105319;1283;108496;-70
2022/05/12 06:51:32;;;;;;;14.40;4.20;;;;;;;20.95;44.74;98623.42;105651;1283;99317;-70
2022/05/12 06:54:01;;;;;;;16.20;5.40;;;;;;;21.06;44.78;98623.07;105463;1284;96661;-70
2022/05/12 06:56:30;;;;;;;11.20;4.50;;;;;;;21.18;44.84;98619.55;105229;1285;112879;-70
2022/05/12 06:58:58;;;;;;;16.80;5.20;;;;;;;21.32;44.63;98614.83;105446;1284;98298;-70
2022/05/12 07:01:27;;;;;;;10.50;4.40;;;;;;;21.94;44.31;98607.36;105444;1283;107806;-70
2022/05/12 07:04:02;;;;;;;13.70;4.60;;;;;;;24.02;42.99;98600.70;105268;1285;96603;-69
2022/05/12 07:06:30;;;;;;;18.50;5.30;;;;;;;26.09;42.90;98597.65;105669;1283;96656;-70
2022/05/12 07:09:00;;;;;;;12.90;4.40;;;;;;;27.94;42.50;98596.83;105669;1283;112920;-70
2022/05/12 07:11:28;;;;;;;18.00;4.50;;;;;;;29.63;42.61;98596.61;105358;1283;99260;-69
2022/05/12 07:13:56;;;;;;;14.00;4.60;;;;;;;30.89;41.89;98597.57;105313;1283;107461;-70
2022/05/12 07:16:24;;;;;;;12.40;4.10;;;;;;;32.21;41.53;98595.30;105635;1283;99230;-70
2022/05/12 07:19:00;;;;;;;19.10;4.50;;;;;;;33.50;41.41;98599.73;105365;1283;99302;-70
2022/05/12 07:27:01;;;;;;;13.60;4.20;;;;;;;36.52;39.65;98596.82;105632;1283;107824;-70
2022/05/12 07:29:29;;;;;;;20.70;4.40;;;;;;;37.03;39.26;98596.55;105600;1283;99318;-70
2022/05/12 07:31:59;;;;;;;13.10;4.00;;;;;;;37.59;38.82;98609.17;105602;1283;96529;-68
2022/05/12 07:34:27;;;;;;;19.50;3.90;;;;;;;38.09;38.15;98604.30;105586;1283;114556;-70
2022/05/12 07:36:59;;;;;;;21.20;4.50;;;;;;;38.58;37.81;98607.77;105373;1283;99365;-70
2022/05/12 07:39:33;;;;;;;10.00;3.50;;;;;;;39.02;37.26;98612.20;105638;1283;107753;-70
2022/05/12 07:42:02;;;;;;;11.90;3.80;;;;;;;39.39;36.02;98614.23;105631;1283;99266;-71
2022/05/12 07:44:35;;;;;;;17.20;3.90;;;;;;;39.70;35.81;98610.30;105201;1283;99353;-71
2022/05/12 07:47:13;;;;;;;;;;;;;;;39.96;34.79;98604.43;105331;1284;112669;-71
2022/05/12 07:49:46;;;;;;;15.40;4.90;;;;;;;39.79;33.63;98601.30;105506;1283;99754;-72
2022/05/12 07:52:15;;;;;;;10.50;3.60;;;;;;;39.86;33.71;98606.41;105456;1284;107673;-71
2022/05/12 07:54:47;;;;;;;17.30;3.80;;;;;;;40.38;33.39;98606.08;105595;1282;99277;-69
2022/05/12 07:57:14;;;;;;;14.20;3.70;;;;;;;40.85;33.13;98609.64;105589;1283;99261;-70
2022/05/12 07:59:45;;;;;;;13.40;4.30;;;;;;;41.07;32.40;98611.61;105353;1284;112659;-70
2022/05/12 08:02:16;;;;;;;17.60;4.50;;;;;;;41.24;31.49;98616.17;105575;1283;99738;-70
2022/05/12 08:04:46;;;;;;;19.10;3.80;;;;;;;41.26;31.10;98613.02;105638;1283;107827;-69
2022/05/12 08:07:18;;;;;;;12.00;3.80;;;;;;;41.29;30.72;98608.92;105545;1283;99255;-69
2022/05/12 08:09:46;;;;;;;12.20;3.60;;;;;;;41.54;30.42;98615.45;105659;1282;99404;-69
2022/05/12 08:12:16;;;;;;;12.90;3.60;;;;;;;41.61;29.91;98618.08;105659;1283;112898;-70
2022/05/12 08:14:47;;;;;;;11.20;3.40;;;;;;;41.42;29.39;98620.95;105476;1283;97639;-70
2022/05/12 08:17:15;;;;;;;12.50;3.40;;;;;;;41.39;28.74;98619.25;105622;1283;107523;-68
2022/05/12 08:19:43;;;;;;;12.80;3.70;;;;;;;41.43;28.54;98615.05;105584;1283;99333;-71
2022/05/12 08:22:11;;;;;;;10.30;4.00;;;;;;;41.42;27.84;98613.03;105339;1283;96741;-70
2022/05/12 08:24:39;;;;;;;8.90;3.60;;;;;;;41.43;27.72;98611.05;105657;1283;113285;-68
2022/05/12 08:27:10;;;;;;;12.10;3.70;;;;;;;41.43;27.31;98613.17;105662;1282;99375;-69
2022/05/12 08:29:47;;;;;;;17.70;3.70;;;;;;;41.48;27.05;98613.41;105676;1283;108071;-69
2022/05/12 08:32:15;;;;;;;9.80;3.70;;;;;;;41.48;26.88;98614.95;105581;1283;97704;-69
2022/05/12 08:34:47;;;;;;;16.10;4.40;;;;;;;41.49;26.47;98610.62;105387;1283;99369;-68
2022/05/12 08:37:19;;;;;;;8.50;3.60;;;;;;;41.60;26.27;98611.42;105650;1283;113952;-70
2022/05/12 08:39:47;;;;;;;9.30;3.00;;;;;;;41.41;25.49;98611.15;105642;1283;97043;-69
2022/05/12 08:42:33;;;;;;;15.30;3.80;;;;;;;41.12;25.26;98611.50;105653;1283;108583;-70
2022/05/12 08:45:09;;;;;;;15.00;3.50;;;;;;;40.88;24.96;98608.94;105613;1283;99296;-69
2022/05/12 08:47:48;;;;;;;11.10;3.60;;;;;;;40.60;24.74;98594.01;105377;1284;99261;-69
2022/05/12 08:50:26;;;;;;;;;;;;;;;40.48;24.39;98590.23;105553;1284;113522;-69
2022/05/12 08:53:07;;;;;;;11.00;3.80;;;;;;;40.34;24.57;98591.08;105297;1283;99762;-69
2022/05/12 08:55:51;;;;;;;10.70;3.30;;;;;;;40.52;24.41;98591.85;105661;1283;107784;-69
2022/05/12 08:58:36;;;;;;;14.00;3.40;;;;;;;40.78;24.17;98590.90;105691;1283;99368;-70
2022/05/12 09:01:22;;;;;;;8.20;3.10;;;;;;;40.85;24.07;98593.59;105697;1283;99255;-70
2022/05/12 09:04:17;;;;;;;9.60;3.60;;;;;;;41.04;23.74;98590.87;105476;1284;112849;-70
2022/05/12 09:07:07;;;;;;;14.50;3.60;;;;;;;41.20;23.66;98588.73;105652;1283;97032;-69
2022/05/12 09:10:06;;;;;;;11.80;3.70;;;;;;;41.16;23.38;98586.89;105604;1283;108288;-70
2022/05/12 09:12:52;;;;;;;5.30;3.00;;;;;;;41.23;23.26;98593.03;105678;1283;97684;-69
2022/05/12 09:15:31;;;;;;;11.60;3.80;;;;;;;41.13;22.92;98595.41;105592;1284;96628;-70
2022/05/12 09:18:01;;;;;;;16.60;3.80;;;;;;;40.97;22.79;98594.44;105235;1285;112687;-69
2022/05/12 09:20:35;;;;;;;13.50;3.70;;;;;;;40.85;22.61;98589.66;105500;1284;99275;-68
2022/05/12 09:23:08;;;;;;;7.30;3.30;;;;;;;40.69;22.68;98590.48;105472;1283;107877;-69
2022/05/12 09:25:44;;;;;;;13.70;3.80;;;;;;;40.65;22.37;98590.98;105442;1284;99271;-69
2022/05/12 09:28:40;;;;;;;8.30;3.60;;;;;;;40.58;22.41;98587.00;105618;1284;99319;-71
2022/05/12 09:31:17;;;;;;;10.10;3.40;;;;;;;40.59;22.26;98581.45;105625;1283;112769;-70
2022/05/12 09:33:52;;;;;;;7.70;3.70;;;;;;;40.36;22.00;98580.92;105349;1284;99373;-70
2022/05/12 09:36:23;;;;;;;9.80;3.50;;;;;;;40.29;22.07;98576.84;105392;1284;107802;-69
2022/05/12 09:38:54;;;;;;;;;;;;;;;40.17;21.90;98574.94;105547;1283;96987;-68
2022/05/12 09:41:46;;;;;;;10.30;3.50;;;;;;;40.00;22.03;98571.76;105570;1283;99246;-70
2022/05/12 09:44:26;;;;;;;10.70;3.80;;;;;;;39.79;21.82;98570.30;105603;1283;112753;-68
2022/05/12 09:46:59;;;;;;;10.20;3.80;;;;;;;39.49;21.46;98571.69;105615;1283;100897;-69
2022/05/12 09:49:36;;;;;;;10.10;4.10;;;;;;;39.22;21.59;98571.66;105471;1283;107783;-69
2022/05/12 09:52:22;;;;;;;13.20;4.30;;;;;;;39.16;21.66;98567.56;105558;1283;99312;-70
2022/05/12 09:55:13;;;;;;;13.20;4.20;;;;;;;38.90;21.37;98562.96;105633;1283;99307;-69
2022/05/12 09:57:54;;;;;;;12.10;4.20;;;;;;;38.45;21.50;98564.23;105592;1283;112784;-70
2022/05/12 10:00:43;;;;;;;9.80;4.20;;;;;;;38.04;21.63;98557.18;105282;1284;97082;-70
2022/05/12 10:09:21;;;;;;;9.50;4.30;;;;;;;36.26;21.42;98553.61;105556;1283;99782;-68
2022/05/12 10:12:09;;;;;;;10.30;4.20;;;;;;;35.74;21.51;98547.60;105432;1283;112947;-70
2022/05/12 10:15:11;;;;;;;12.70;4.20;;;;;;;35.26;21.55;98550.67;105561;1283;97070;-69
2022/05/12 10:17:56;;;;;;;9.40;4.00;;;;;;;34.75;21.76;98553.73;105522;1284;108018;-69
2022/05/12 10:20:31;;;;;;;13.50;4.10;;;;;;;34.40;21.94;98561.87;105530;1284;99343;-69
2022/05/12 10:23:07;;;;;;;11.00;3.80;;;;;;;34.09;21.60;98556.93;105375;1283;96739;-69
2022/05/12 10:25:57;;;;;;;15.60;4.20;;;;;;;33.82;21.72;98552.15;105500;1286;112851;-69
2022/05/12 10:28:50;;;;;;;10.80;4.30;;;;;;;33.58;21.81;98552.17;105554;1284;98322;-69
2022/05/12 10:31:32;;;;;;;11.70;4.00;;;;;;;33.22;22.23;98547.89;105477;1284;107760;-70
2022/05/12 10:34:45;;;;;;;8.50;3.50;;;;;;;32.97;22.35;98539.20;105591;1283;99207;-70
2022/05/12 10:37:19;;;;;;;;;;;;;;;32.52;21.77;98544.48;105142;1284;99247;-70
2022/05/12 10:39:55;;;;;;;7.50;3.10;;;;;;;31.84;21.97;98539.41;105521;1284;112806;-71
2022/05/12 10:42:53;;;;;;;11.00;3.40;;;;;;;31.24;22.11;98539.52;105558;1283;99297;-69
2022/05/12 10:45:40;;;;;;;10.50;3.50;;;;;;;30.81;22.33;98550.60;105433;1284;107612;-68
2022/05/12 10:48:39;;;;;;;7.50;3.20;;;;;;;30.51;22.27;98559.73;105471;1283;99346;-69
2022/05/12 10:51:36;;;;;;;16.60;3.90;;;;;;;30.14;22.37;98554.35;105445;1284;96882;-69
2022/05/12 10:54:52;;;;;;;21.00;4.00;;;;;;;29.81;22.59;98544.75;105654;1283;112726;-68
2022/05/12 10:57:49;;;;;;;16.40;4.00;;;;;;;29.77;22.69;98539.86;105671;1283;99534;-69
2022/05/12 11:00:42;;;;;;;20.60;3.90;;;;;;;29.82;22.96;98540.21;105516;1283;107790;-69
2022/05/12 11:03:27;;;;;;;16.00;4.10;;;;;;;29.92;22.95;98542.35;105622;1283;97740;-69
2022/05/12 11:06:05;;;;;;;12.80;3.50;;;;;;;30.00;23.09;98546.05;105606;1283;99362;-69
2022/05/12 11:08:37;;;;;;;11.60;3.70;;;;;;;29.97;23.27;98540.73;105517;1284;112801;-69
2022/05/12 11:11:15;;;;;;;12.40;4.00;;;;;;;29.90;23.24;98537.66;105597;1283;99228;-68
2022/05/12 11:14:17;;;;;;;9.90;3.80;;;;;;;29.96;23.36;98543.95;105536;1283;107828;-66
2022/05/12 11:17:12;;;;;;;13.40;4.30;;;;;;;29.96;23.60;98542.80;105466;1283;99427;-68
2022/05/12 11:19:56;;;;;;;15.20;4.30;;;;;;;29.90;23.87;98539.73;105231;1284;99229;-69
2022/05/12 11:22:55;;;;;;;13.60;4.60;;;;;;;29.92;23.93;98535.77;105658;1284;113893;-70
2022/05/12 11:25:50;;;;;;;16.30;3.70;;;;;;;29.97;24.16;98543.69;105632;1284;99250;-71
2022/05/12 11:32:06;;;;;;;56.40;6.90;;;;;;;29.94;24.06;98536.11;105353;1284;99944;-70
2022/05/12 11:34:39;;;;;;;27.30;4.50;;;;;;;29.98;24.06;98535.70;104466;1291;99147;-69
2022/05/12 11:37:40;;;;;;;15.10;4.30;;;;;;;30.04;24.38;98535.46;105149;1284;113592;-69
2022/05/12 11:40:32;;;;;;;39.10;5.30;;;;;;;30.04;24.46;98534.30;105096;1287;99268;-70
2022/05/12 11:46:12;;;;;;;14.40;3.80;;;;;;;29.87;24.45;98542.70;105490;1284;99253;-68
2022/05/12 11:49:22;;;;;;;28.70;4.30;;;;;;;29.75;24.60;98540.11;105626;1284;99246;-70
2022/05/12 11:52:03;;;;;;;24.90;5.30;;;;;;;29.59;24.84;98544.14;104996;1284;112577;-69
2022/05/12 11:54:59;;;;;;;12.60;3.90;;;;;;;29.54;24.54;98554.58;105514;1284;99239;-68
2022/05/12 11:57:36;;;;;;;17.40;3.90;;;;;;;29.35;24.75;98555.84;105512;1283;108806;-69
2022/05/12 12:00:30;;;;;;;20.90;4.20;;;;;;;29.23;24.67;98556.94;105466;1284;99256;-69
2022/05/12 12:02:58;;;;;;;16.00;4.10;;;;;;;29.11;24.60;98555.79;105326;1284;99259;-68
2022/05/12 12:05:29;;;;;;;16.00;3.60;;;;;;;28.97;24.59;98555.13;105591;1284;113351;-69
2022/05/12 12:08:10;;;;;;;20.40;4.10;;;;;;;28.90;24.77;98554.20;105598;1283;99260;-69
2022/05/12 12:10:43;;;;;;;22.20;4.60;;;;;;;28.81;24.63;98554.34;105517;1284;107768;-69
2022/05/12 12:13:38;;;;;;;9.50;3.80;;;;;;;28.70;24.59;98561.66;105326;1284;97692;-68